sensor_id;sensor_type;location;lat;lon;timestamp;P1;durP1;ratioP1;P2;durP2;ratioP2
35364;SDS011;21464;48.112;11.530;2022-09-09T00:00:56;2.75;;;1.60;;
35364;SDS011;21464;48.112;11.530;2022-09-09T00:03:27;1.95;;;1.23;;
35364;SDS011;21464;48.112;11.530;2022-09-09T00:06:10;2.25;;;1.30;;
35364;SDS011;21464;48.112;11.530;2022-09-09T00:11:36;3.47;;;2.33;;
35364;SDS011;21464;48.112;11.530;2022-09-09T00:14:08;3.28;;;2.38;;
35364;SDS011;21464;48.112;11.530;2022-09-09T00:16:37;2.00;;;1.90;;
35364;SDS011;21464;48.112;11.530;2022-09-09T00:19:07;2.95;;;1.92;;
35364;SDS011;21464;48.112;11.530;2022-09-09T00:21:43;3.85;;;1.70;;
35364;SDS011;21464;48.112;11.530;2022-09-09T00:26:45;1.63;;;1.52;;
35364;SDS011;21464;48.112;11.530;2022-09-09T00:31:49;3.47;;;2.55;;
35364;SDS011;21464;48.112;11.530;2022-09-09T00:36:43;3.22;;;2.83;;
35364;SDS011;21464;48.112;11.530;2022-09-09T00:39:13;3.17;;;2.20;;
35364;SDS011;21464;48.112;11.530;2022-09-09T00:44:13;3.33;;;1.95;;
35364;SDS011;21464;48.112;11.530;2022-09-09T00:55:03;3.58;;;3.25;;
35364;SDS011;21464;48.112;11.530;2022-09-09T00:59:48;4.03;;;3.25;;
35364;SDS011;21464;48.112;11.530;2022-09-09T01:02:39;2.80;;;1.92;;
35364;SDS011;21464;48.112;11.530;2022-09-09T01:08:05;3.15;;;1.80;;
35364;SDS011;21464;48.112;11.530;2022-09-09T01:10:52;1.67;;;1.58;;
35364;SDS011;21464;48.112;11.530;2022-09-09T01:13:29;2.13;;;1.55;;
35364;SDS011;21464;48.112;11.530;2022-09-09T01:16:01;2.03;;;1.40;;
35364;SDS011;21464;48.112;11.530;2022-09-09T01:18:34;2.10;;;1.90;;
35364;SDS011;21464;48.112;11.530;2022-09-09T01:26:46;3.38;;;2.35;;
35364;SDS011;21464;48.112;11.530;2022-09-09T01:29:21;4.82;;;3.33;;
35364;SDS011;21464;48.112;11.530;2022-09-09T01:34:35;4.85;;;3.80;;
35364;SDS011;21464;48.112;11.530;2022-09-09T01:37:04;5.25;;;2.92;;
35364;SDS011;21464;48.112;11.530;2022-09-09T01:39:32;3.42;;;2.80;;
35364;SDS011;21464;48.112;11.530;2022-09-09T01:42:04;3.13;;;2.22;;
35364;SDS011;21464;48.112;11.530;2022-09-09T01:44:32;3.25;;;2.35;;
35364;SDS011;21464;48.112;11.530;2022-09-09T01:47:00;4.60;;;2.28;;
35364;SDS011;21464;48.112;11.530;2022-09-09T01:49:26;3.78;;;2.17;;
35364;SDS011;21464;48.112;11.530;2022-09-09T01:51:53;4.55;;;3.35;;
35364;SDS011;21464;48.112;11.530;2022-09-09T01:54:25;4.50;;;3.78;;
35364;SDS011;21464;48.112;11.530;2022-09-09T02:02:10;2.30;;;2.05;;
35364;SDS011;21464;48.112;11.530;2022-09-09T02:04:41;3.25;;;1.90;;
35364;SDS011;21464;48.112;11.530;2022-09-09T02:07:27;5.18;;;2.50;;
35364;SDS011;21464;48.112;11.530;2022-09-09T02:10:01;3.90;;;3.58;;
35364;SDS011;21464;48.112;11.530;2022-09-09T02:12:29;4.20;;;2.50;;
35364;SDS011;21464;48.112;11.530;2022-09-09T02:15:00;5.35;;;3.45;;
35364;SDS011;21464;48.112;11.530;2022-09-09T02:17:34;2.75;;;2.08;;
35364;SDS011;21464;48.112;11.530;2022-09-09T02:20:08;2.25;;;2.05;;
35364;SDS011;21464;48.112;11.530;2022-09-09T02:22:47;1.70;;;1.60;;
35364;SDS011;21464;48.112;11.530;2022-09-09T02:25:17;2.88;;;1.60;;
35364;SDS011;21464;48.112;11.530;2022-09-09T02:27:44;3.53;;;2.65;;
35364;SDS011;21464;48.112;11.530;2022-09-09T02:30:11;6.45;;;3.13;;
35364;SDS011;21464;48.112;11.530;2022-09-09T02:32:42;3.55;;;2.90;;
35364;SDS011;21464;48.112;11.530;2022-09-09T02:35:13;2.47;;;2.28;;
35364;SDS011;21464;48.112;11.530;2022-09-09T02:37:41;3.95;;;2.83;;
35364;SDS011;21464;48.112;11.530;2022-09-09T02:40:09;2.42;;;2.22;;
35364;SDS011;21464;48.112;11.530;2022-09-09T02:42:42;2.40;;;2.20;;
35364;SDS011;21464;48.112;11.530;2022-09-09T02:45:09;2.00;;;1.80;;
35364;SDS011;21464;48.112;11.530;2022-09-09T02:50:29;2.95;;;1.80;;
35364;SDS011;21464;48.112;11.530;2022-09-09T02:58:09;2.45;;;2.13;;
35364;SDS011;21464;48.112;11.530;2022-09-09T03:00:37;3.55;;;2.22;;
35364;SDS011;21464;48.112;11.530;2022-09-09T03:03:03;2.80;;;1.65;;
35364;SDS011;21464;48.112;11.530;2022-09-09T03:05:29;3.08;;;2.15;;
35364;SDS011;21464;48.112;11.530;2022-09-09T03:07:55;2.85;;;2.20;;
35364;SDS011;21464;48.112;11.530;2022-09-09T03:10:22;3.47;;;3.05;;
35364;SDS011;21464;48.112;11.530;2022-09-09T03:12:48;4.47;;;2.20;;
35364;SDS011;21464;48.112;11.530;2022-09-09T03:15:16;2.53;;;2.33;;
35364;SDS011;21464;48.112;11.530;2022-09-09T03:17:43;2.60;;;2.35;;
35364;SDS011;21464;48.112;11.530;2022-09-09T03:20:09;4.43;;;2.40;;
35364;SDS011;21464;48.112;11.530;2022-09-09T03:22:36;3.17;;;2.63;;
35364;SDS011;21464;48.112;11.530;2022-09-09T03:25:02;4.07;;;2.28;;
35364;SDS011;21464;48.112;11.530;2022-09-09T03:27:29;2.83;;;2.28;;
35364;SDS011;21464;48.112;11.530;2022-09-09T03:29:56;3.47;;;2.65;;
35364;SDS011;21464;48.112;11.530;2022-09-09T03:32:24;4.65;;;2.67;;
35364;SDS011;21464;48.112;11.530;2022-09-09T03:34:53;4.15;;;2.65;;
35364;SDS011;21464;48.112;11.530;2022-09-09T03:37:19;28.20;;;19.65;;
35364;SDS011;21464;48.112;11.530;2022-09-09T03:39:46;35.83;;;23.83;;
35364;SDS011;21464;48.112;11.530;2022-09-09T03:42:15;16.00;;;10.63;;
35364;SDS011;21464;48.112;11.530;2022-09-09T03:44:44;8.77;;;5.05;;
35364;SDS011;21464;48.112;11.530;2022-09-09T03:47:12;6.38;;;4.88;;
35364;SDS011;21464;48.112;11.530;2022-09-09T03:49:39;5.07;;;3.55;;
35364;SDS011;21464;48.112;11.530;2022-09-09T03:52:05;9.82;;;6.07;;
35364;SDS011;21464;48.112;11.530;2022-09-09T03:54:31;5.22;;;3.88;;
35364;SDS011;21464;48.112;11.530;2022-09-09T03:56:57;3.92;;;3.28;;
35364;SDS011;21464;48.112;11.530;2022-09-09T03:59:24;3.15;;;2.53;;
35364;SDS011;21464;48.112;11.530;2022-09-09T04:01:49;2.65;;;2.35;;
35364;SDS011;21464;48.112;11.530;2022-09-09T04:04:15;2.47;;;1.95;;
35364;SDS011;21464;48.112;11.530;2022-09-09T04:06:41;2.33;;;2.13;;
35364;SDS011;21464;48.112;11.530;2022-09-09T04:09:08;6.90;;;2.70;;
35364;SDS011;21464;48.112;11.530;2022-09-09T04:11:34;3.10;;;2.90;;
35364;SDS011;21464;48.112;11.530;2022-09-09T04:14:00;2.78;;;2.58;;
35364;SDS011;21464;48.112;11.530;2022-09-09T04:16:27;2.20;;;2.00;;
35364;SDS011;21464;48.112;11.530;2022-09-09T04:18:53;3.20;;;2.33;;
35364;SDS011;21464;48.112;11.530;2022-09-09T04:21:19;2.00;;;1.90;;
35364;SDS011;21464;48.112;11.530;2022-09-09T04:23:45;2.13;;;1.63;;
35364;SDS011;21464;48.112;11.530;2022-09-09T04:26:11;1.95;;;1.85;;
35364;SDS011;21464;48.112;11.530;2022-09-09T04:28:38;2.55;;;1.80;;
35364;SDS011;21464;48.112;11.530;2022-09-09T04:31:10;1.27;;;1.17;;
35364;SDS011;21464;48.112;11.530;2022-09-09T04:33:40;1.92;;;1.80;;
35364;SDS011;21464;48.112;11.530;2022-09-09T04:36:07;4.22;;;1.52;;
35364;SDS011;21464;48.112;11.530;2022-09-09T04:38:34;3.28;;;1.70;;
35364;SDS011;21464;48.112;11.530;2022-09-09T04:41:00;2.47;;;1.60;;
35364;SDS011;21464;48.112;11.530;2022-09-09T04:43:27;2.30;;;1.50;;
35364;SDS011;21464;48.112;11.530;2022-09-09T04:45:53;1.98;;;1.88;;
35364;SDS011;21464;48.112;11.530;2022-09-09T04:48:23;2.50;;;2.30;;
35364;SDS011;21464;48.112;11.530;2022-09-09T04:51:06;2.30;;;2.08;;
35364;SDS011;21464;48.112;11.530;2022-09-09T04:53:33;1.73;;;1.63;;
35364;SDS011;21464;48.112;11.530;2022-09-09T04:56:01;2.58;;;1.77;;
35364;SDS011;21464;48.112;11.530;2022-09-09T04:58:27;2.40;;;1.77;;
35364;SDS011;21464;48.112;11.530;2022-09-09T05:00:53;3.10;;;1.77;;
35364;SDS011;21464;48.112;11.530;2022-09-09T05:03:20;1.63;;;1.50;;
35364;SDS011;21464;48.112;11.530;2022-09-09T05:05:46;2.38;;;1.80;;
35364;SDS011;21464;48.112;11.530;2022-09-09T05:08:13;2.75;;;1.60;;
35364;SDS011;21464;48.112;11.530;2022-09-09T05:10:39;1.65;;;1.40;;
35364;SDS011;21464;48.112;11.530;2022-09-09T05:13:05;7.00;;;5.32;;
35364;SDS011;21464;48.112;11.530;2022-09-09T05:15:32;5.57;;;3.25;;
35364;SDS011;21464;48.112;11.530;2022-09-09T05:18:01;5.00;;;3.33;;
35364;SDS011;21464;48.112;11.530;2022-09-09T05:20:30;5.68;;;3.75;;
35364;SDS011;21464;48.112;11.530;2022-09-09T05:22:56;4.25;;;3.75;;
35364;SDS011;21464;48.112;11.530;2022-09-09T05:25:25;12.07;;;8.68;;
35364;SDS011;21464;48.112;11.530;2022-09-09T05:27:55;4.30;;;3.03;;
35364;SDS011;21464;48.112;11.530;2022-09-09T05:30:21;4.72;;;3.92;;
35364;SDS011;21464;48.112;11.530;2022-09-09T05:32:47;3.45;;;3.15;;
35364;SDS011;21464;48.112;11.530;2022-09-09T05:35:15;3.53;;;3.22;;
35364;SDS011;21464;48.112;11.530;2022-09-09T05:37:42;4.82;;;3.80;;
35364;SDS011;21464;48.112;11.530;2022-09-09T05:40:08;2.83;;;2.10;;
35364;SDS011;21464;48.112;11.530;2022-09-09T05:42:35;2.50;;;2.20;;
35364;SDS011;21464;48.112;11.530;2022-09-09T05:45:01;2.08;;;1.60;;
35364;SDS011;21464;48.112;11.530;2022-09-09T05:47:27;2.22;;;1.70;;
35364;SDS011;21464;48.112;11.530;2022-09-09T05:49:54;2.20;;;2.00;;
35364;SDS011;21464;48.112;11.530;2022-09-09T05:52:21;1.35;;;1.17;;
35364;SDS011;21464;48.112;11.530;2022-09-09T05:54:47;1.42;;;1.33;;
35364;SDS011;21464;48.112;11.530;2022-09-09T05:57:13;1.40;;;1.30;;
35364;SDS011;21464;48.112;11.530;2022-09-09T05:59:39;1.75;;;1.60;;
35364;SDS011;21464;48.112;11.530;2022-09-09T06:02:05;1.52;;;1.42;;
35364;SDS011;21464;48.112;11.530;2022-09-09T06:04:35;2.75;;;2.00;;
35364;SDS011;21464;48.112;11.530;2022-09-09T06:07:01;3.65;;;1.67;;
35364;SDS011;21464;48.112;11.530;2022-09-09T06:09:29;1.52;;;1.40;;
35364;SDS011;21464;48.112;11.530;2022-09-09T06:11:56;1.70;;;1.50;;
35364;SDS011;21464;48.112;11.530;2022-09-09T06:14:24;2.80;;;1.30;;
35364;SDS011;21464;48.112;11.530;2022-09-09T06:16:52;2.15;;;1.20;;
35364;SDS011;21464;48.112;11.530;2022-09-09T06:19:21;1.23;;;1.13;;
35364;SDS011;21464;48.112;11.530;2022-09-09T06:21:48;2.65;;;1.35;;
35364;SDS011;21464;48.112;11.530;2022-09-09T06:24:15;2.05;;;1.40;;
35364;SDS011;21464;48.112;11.530;2022-09-09T06:26:43;1.90;;;1.30;;
35364;SDS011;21464;48.112;11.530;2022-09-09T06:29:17;1.40;;;1.13;;
35364;SDS011;21464;48.112;11.530;2022-09-09T06:31:44;1.60;;;1.40;;
35364;SDS011;21464;48.112;11.530;2022-09-09T06:34:17;3.28;;;2.75;;
35364;SDS011;21464;48.112;11.530;2022-09-09T06:36:48;1.40;;;1.30;;
35364;SDS011;21464;48.112;11.530;2022-09-09T06:39:15;1.70;;;1.60;;
35364;SDS011;21464;48.112;11.530;2022-09-09T06:41:42;3.05;;;2.20;;
35364;SDS011;21464;48.112;11.530;2022-09-09T06:44:18;4.63;;;3.20;;
35364;SDS011;21464;48.112;11.530;2022-09-09T06:46:44;6.28;;;4.65;;
35364;SDS011;21464;48.112;11.530;2022-09-09T06:49:13;5.60;;;4.18;;
35364;SDS011;21464;48.112;11.530;2022-09-09T06:51:40;8.88;;;7.00;;
35364;SDS011;21464;48.112;11.530;2022-09-09T06:54:10;7.70;;;5.28;;
35364;SDS011;21464;48.112;11.530;2022-09-09T06:56:37;3.25;;;2.35;;
35364;SDS011;21464;48.112;11.530;2022-09-09T06:59:10;4.82;;;2.30;;
35364;SDS011;21464;48.112;11.530;2022-09-09T07:01:38;3.50;;;2.88;;
35364;SDS011;21464;48.112;11.530;2022-09-09T07:04:11;2.92;;;2.40;;
35364;SDS011;21464;48.112;11.530;2022-09-09T07:06:44;2.60;;;1.40;;
35364;SDS011;21464;48.112;11.530;2022-09-09T07:09:14;1.40;;;1.30;;
35364;SDS011;21464;48.112;11.530;2022-09-09T07:11:46;1.73;;;1.52;;
35364;SDS011;21464;48.112;11.530;2022-09-09T07:14:13;2.00;;;1.30;;
35364;SDS011;21464;48.112;11.530;2022-09-09T07:16:41;1.60;;;1.30;;
35364;SDS011;21464;48.112;11.530;2022-09-09T07:19:08;1.30;;;1.10;;
35364;SDS011;21464;48.112;11.530;2022-09-09T07:21:34;1.35;;;1.17;;
35364;SDS011;21464;48.112;11.530;2022-09-09T07:24:00;1.10;;;1.10;;
35364;SDS011;21464;48.112;11.530;2022-09-09T07:26:28;2.22;;;1.20;;
35364;SDS011;21464;48.112;11.530;2022-09-09T07:28:56;2.10;;;1.25;;
35364;SDS011;21464;48.112;11.530;2022-09-09T07:31:24;1.55;;;1.45;;
35364;SDS011;21464;48.112;11.530;2022-09-09T07:33:51;1.63;;;1.10;;
35364;SDS011;21464;48.112;11.530;2022-09-09T07:36:18;1.05;;;1.00;;
35364;SDS011;21464;48.112;11.530;2022-09-09T07:38:48;1.30;;;1.20;;
35364;SDS011;21464;48.112;11.530;2022-09-09T07:41:16;1.17;;;1.10;;
35364;SDS011;21464;48.112;11.530;2022-09-09T07:43:44;1.30;;;1.20;;
35364;SDS011;21464;48.112;11.530;2022-09-09T07:46:11;1.02;;;1.02;;
35364;SDS011;21464;48.112;11.530;2022-09-09T07:48:44;2.35;;;1.23;;
35364;SDS011;21464;48.112;11.530;2022-09-09T07:51:12;0.85;;;0.85;;
35364;SDS011;21464;48.112;11.530;2022-09-09T07:53:39;1.00;;;1.00;;
35364;SDS011;21464;48.112;11.530;2022-09-09T07:56:06;1.42;;;1.17;;
35364;SDS011;21464;48.112;11.530;2022-09-09T07:58:33;1.35;;;1.20;;
35364;SDS011;21464;48.112;11.530;2022-09-09T08:00:59;2.35;;;1.15;;
35364;SDS011;21464;48.112;11.530;2022-09-09T08:03:26;2.45;;;1.08;;
35364;SDS011;21464;48.112;11.530;2022-09-09T08:05:52;1.30;;;1.17;;
35364;SDS011;21464;48.112;11.530;2022-09-09T08:08:18;1.15;;;1.10;;
35364;SDS011;21464;48.112;11.530;2022-09-09T08:10:45;1.75;;;1.17;;
35364;SDS011;21464;48.112;11.530;2022-09-09T08:13:11;1.30;;;1.30;;
35364;SDS011;21464;48.112;11.530;2022-09-09T08:15:38;1.30;;;1.10;;
35364;SDS011;21464;48.112;11.530;2022-09-09T08:18:05;1.52;;;1.25;;
35364;SDS011;21464;48.112;11.530;2022-09-09T08:20:31;1.48;;;1.30;;
35364;SDS011;21464;48.112;11.530;2022-09-09T08:22:57;1.65;;;1.55;;
35364;SDS011;21464;48.112;11.530;2022-09-09T08:25:24;1.63;;;1.30;;
35364;SDS011;21464;48.112;11.530;2022-09-09T08:27:52;1.30;;;1.20;;
35364;SDS011;21464;48.112;11.530;2022-09-09T08:30:18;4.22;;;2.78;;
35364;SDS011;21464;48.112;11.530;2022-09-09T08:32:44;1.60;;;1.50;;
35364;SDS011;21464;48.112;11.530;2022-09-09T08:35:11;4.55;;;2.95;;
35364;SDS011;21464;48.112;11.530;2022-09-09T08:37:38;1.40;;;1.30;;
35364;SDS011;21464;48.112;11.530;2022-09-09T08:40:04;1.58;;;1.20;;
35364;SDS011;21464;48.112;11.530;2022-09-09T08:42:33;1.27;;;1.17;;
35364;SDS011;21464;48.112;11.530;2022-09-09T08:50:49;2.80;;;1.48;;
35364;SDS011;21464;48.112;11.530;2022-09-09T08:53:24;1.95;;;1.20;;
35364;SDS011;21464;48.112;11.530;2022-09-09T08:55:56;3.65;;;1.30;;
35364;SDS011;21464;48.112;11.530;2022-09-09T08:58:43;3.00;;;1.40;;
35364;SDS011;21464;48.112;11.530;2022-09-09T09:01:16;2.97;;;1.60;;
35364;SDS011;21464;48.112;11.530;2022-09-09T09:09:23;3.20;;;1.73;;
35364;SDS011;21464;48.112;11.530;2022-09-09T09:11:56;3.22;;;1.60;;
35364;SDS011;21464;48.112;11.530;2022-09-09T09:14:29;1.73;;;1.60;;
35364;SDS011;21464;48.112;11.530;2022-09-09T09:19:28;2.40;;;1.33;;
35364;SDS011;21464;48.112;11.530;2022-09-09T09:27:21;2.80;;;1.50;;
35364;SDS011;21464;48.112;11.530;2022-09-09T09:29:50;1.90;;;1.73;;
35364;SDS011;21464;48.112;11.530;2022-09-09T09:32:18;4.40;;;2.60;;
35364;SDS011;21464;48.112;11.530;2022-09-09T09:34:50;2.05;;;1.92;;
35364;SDS011;21464;48.112;11.530;2022-09-09T09:37:22;2.50;;;2.05;;
35364;SDS011;21464;48.112;11.530;2022-09-09T09:39:49;7.60;;;4.28;;
35364;SDS011;21464;48.112;11.530;2022-09-09T09:42:16;3.50;;;2.92;;
35364;SDS011;21464;48.112;11.530;2022-09-09T09:44:45;7.60;;;5.57;;
35364;SDS011;21464;48.112;11.530;2022-09-09T09:47:16;6.28;;;3.80;;
35364;SDS011;21464;48.112;11.530;2022-09-09T09:49:58;5.05;;;2.70;;
35364;SDS011;21464;48.112;11.530;2022-09-09T09:52:26;2.85;;;2.65;;
35364;SDS011;21464;48.112;11.530;2022-09-09T09:54:53;4.45;;;2.53;;
35364;SDS011;21464;48.112;11.530;2022-09-09T09:57:22;4.68;;;2.17;;
35364;SDS011;21464;48.112;11.530;2022-09-09T09:59:59;3.75;;;2.17;;
35364;SDS011;21464;48.112;11.530;2022-09-09T10:02:25;1.98;;;1.88;;
35364;SDS011;21464;48.112;11.530;2022-09-09T10:05:05;3.38;;;2.20;;
35364;SDS011;21464;48.112;11.530;2022-09-09T10:07:33;2.65;;;1.58;;
35364;SDS011;21464;48.112;11.530;2022-09-09T10:09:59;2.70;;;1.88;;
35364;SDS011;21464;48.112;11.530;2022-09-09T10:15:16;1.70;;;1.60;;
35364;SDS011;21464;48.112;11.530;2022-09-09T10:22:50;1.70;;;1.55;;
35364;SDS011;21464;48.112;11.530;2022-09-09T10:25:26;1.85;;;1.55;;
35364;SDS011;21464;48.112;11.530;2022-09-09T10:48:59;3.15;;;2.85;;
35364;SDS011;21464;48.112;11.530;2022-09-09T10:56:44;1.90;;;1.75;;
35364;SDS011;21464;48.112;11.530;2022-09-09T10:59:19;1.95;;;1.50;;
35364;SDS011;21464;48.112;11.530;2022-09-09T11:01:58;1.58;;;1.20;;
35364;SDS011;21464;48.112;11.530;2022-09-09T11:04:28;2.85;;;1.33;;
35364;SDS011;21464;48.112;11.530;2022-09-09T11:06:58;1.98;;;1.73;;
35364;SDS011;21464;48.112;11.530;2022-09-09T11:09:26;2.63;;;1.38;;
35364;SDS011;21464;48.112;11.530;2022-09-09T11:11:53;1.45;;;1.20;;
35364;SDS011;21464;48.112;11.530;2022-09-09T11:14:31;2.58;;;2.25;;
35364;SDS011;21464;48.112;11.530;2022-09-09T11:19:26;2.08;;;1.90;;
35364;SDS011;21464;48.112;11.530;2022-09-09T11:21:53;1.77;;;1.67;;
35364;SDS011;21464;48.112;11.530;2022-09-09T11:24:40;2.85;;;1.65;;
35364;SDS011;21464;48.112;11.530;2022-09-09T11:27:14;1.45;;;1.35;;
35364;SDS011;21464;48.112;11.530;2022-09-09T11:34:44;1.10;;;1.10;;
35364;SDS011;21464;48.112;11.530;2022-09-09T11:40:19;1.40;;;1.30;;
35364;SDS011;21464;48.112;11.530;2022-09-09T11:42:46;0.85;;;0.85;;
35364;SDS011;21464;48.112;11.530;2022-09-09T11:45:23;1.02;;;0.88;;
35364;SDS011;21464;48.112;11.530;2022-09-09T11:47:56;2.58;;;1.70;;
35364;SDS011;21464;48.112;11.530;2022-09-09T11:52:49;1.55;;;1.40;;
35364;SDS011;21464;48.112;11.530;2022-09-09T11:55:25;1.10;;;0.90;;
35364;SDS011;21464;48.112;11.530;2022-09-09T12:01:12;4.43;;;3.60;;
35364;SDS011;21464;48.112;11.530;2022-09-09T12:05:58;1.60;;;1.40;;
35364;SDS011;21464;48.112;11.530;2022-09-09T12:08:26;2.05;;;1.60;;
35364;SDS011;21464;48.112;11.530;2022-09-09T12:10:57;1.23;;;1.00;;
35364;SDS011;21464;48.112;11.530;2022-09-09T12:13:24;1.30;;;1.20;;
35364;SDS011;21464;48.112;11.530;2022-09-09T12:15:57;1.90;;;1.40;;
35364;SDS011;21464;48.112;11.530;2022-09-09T12:18:34;2.30;;;1.15;;
35364;SDS011;21464;48.112;11.530;2022-09-09T12:24:02;1.63;;;0.98;;
35364;SDS011;21464;48.112;11.530;2022-09-09T12:26:43;0.82;;;0.82;;
35364;SDS011;21464;48.112;11.530;2022-09-09T12:34:16;1.13;;;0.93;;
35364;SDS011;21464;48.112;11.530;2022-09-09T12:36:42;3.05;;;1.10;;
35364;SDS011;21464;48.112;11.530;2022-09-09T12:39:22;1.17;;;1.00;;
35364;SDS011;21464;48.112;11.530;2022-09-09T12:41:51;1.20;;;1.00;;
35364;SDS011;21464;48.112;11.530;2022-09-09T12:44:22;1.30;;;0.95;;
35364;SDS011;21464;48.112;11.530;2022-09-09T12:46:48;1.73;;;0.90;;
35364;SDS011;21464;48.112;11.530;2022-09-09T12:49:33;1.35;;;1.00;;
35364;SDS011;21464;48.112;11.530;2022-09-09T12:52:06;0.75;;;0.73;;
35364;SDS011;21464;48.112;11.530;2022-09-09T12:54:35;2.03;;;1.65;;
35364;SDS011;21464;48.112;11.530;2022-09-09T12:57:02;2.13;;;1.92;;
35364;SDS011;21464;48.112;11.530;2022-09-09T12:59:36;1.30;;;1.20;;
35364;SDS011;21464;48.112;11.530;2022-09-09T13:02:11;1.40;;;1.20;;
35364;SDS011;21464;48.112;11.530;2022-09-09T13:04:37;3.35;;;1.55;;
35364;SDS011;21464;48.112;11.530;2022-09-09T13:07:06;7.72;;;5.18;;
35364;SDS011;21464;48.112;11.530;2022-09-09T13:09:35;2.38;;;1.23;;
35364;SDS011;21464;48.112;11.530;2022-09-09T13:12:01;1.17;;;1.00;;
35364;SDS011;21464;48.112;11.530;2022-09-09T13:14:32;1.80;;;1.58;;
35364;SDS011;21464;48.112;11.530;2022-09-09T13:17:00;1.98;;;1.20;;
35364;SDS011;21464;48.112;11.530;2022-09-09T13:19:28;1.50;;;1.08;;
35364;SDS011;21464;48.112;11.530;2022-09-09T13:21:55;1.77;;;1.10;;
35364;SDS011;21464;48.112;11.530;2022-09-09T13:24:29;0.90;;;0.90;;
35364;SDS011;21464;48.112;11.530;2022-09-09T13:26:56;1.80;;;1.20;;
35364;SDS011;21464;48.112;11.530;2022-09-09T13:29:22;2.17;;;1.88;;
35364;SDS011;21464;48.112;11.530;2022-09-09T13:31:48;2.75;;;2.22;;
35364;SDS011;21464;48.112;11.530;2022-09-09T13:34:31;4.18;;;3.20;;
35364;SDS011;21464;48.112;11.530;2022-09-09T13:37:01;5.57;;;3.20;;
35364;SDS011;21464;48.112;11.530;2022-09-09T13:39:28;2.67;;;1.73;;
35364;SDS011;21464;48.112;11.530;2022-09-09T13:41:54;1.67;;;1.58;;
35364;SDS011;21464;48.112;11.530;2022-09-09T13:44:21;2.70;;;1.80;;
35364;SDS011;21464;48.112;11.530;2022-09-09T13:46:59;2.20;;;1.92;;
35364;SDS011;21464;48.112;11.530;2022-09-09T13:49:26;2.47;;;1.20;;
35364;SDS011;21464;48.112;11.530;2022-09-09T13:52:03;3.30;;;1.60;;
35364;SDS011;21464;48.112;11.530;2022-09-09T13:54:29;3.42;;;2.42;;
35364;SDS011;21464;48.112;11.530;2022-09-09T13:56:56;1.83;;;1.15;;
35364;SDS011;21464;48.112;11.530;2022-09-09T13:59:22;3.00;;;1.30;;
35364;SDS011;21464;48.112;11.530;2022-09-09T14:01:49;2.13;;;1.10;;
35364;SDS011;21464;48.112;11.530;2022-09-09T14:04:18;0.80;;;0.80;;
35364;SDS011;21464;48.112;11.530;2022-09-09T14:06:46;1.52;;;0.80;;
35364;SDS011;21464;48.112;11.530;2022-09-09T14:09:13;1.55;;;1.13;;
35364;SDS011;21464;48.112;11.530;2022-09-09T14:11:40;0.70;;;0.70;;
35364;SDS011;21464;48.112;11.530;2022-09-09T14:14:07;1.20;;;0.88;;
35364;SDS011;21464;48.112;11.530;2022-09-09T14:16:33;1.02;;;0.90;;
35364;SDS011;21464;48.112;11.530;2022-09-09T14:18:59;0.73;;;0.73;;
35364;SDS011;21464;48.112;11.530;2022-09-09T14:21:25;0.75;;;0.75;;
35364;SDS011;21464;48.112;11.530;2022-09-09T14:23:51;2.13;;;0.90;;
35364;SDS011;21464;48.112;11.530;2022-09-09T14:26:18;0.90;;;0.90;;
35364;SDS011;21464;48.112;11.530;2022-09-09T14:28:46;1.00;;;0.90;;
35364;SDS011;21464;48.112;11.530;2022-09-09T14:31:12;1.33;;;0.98;;
35364;SDS011;21464;48.112;11.530;2022-09-09T14:33:39;1.63;;;1.27;;
35364;SDS011;21464;48.112;11.530;2022-09-09T14:36:05;1.25;;;1.20;;
35364;SDS011;21464;48.112;11.530;2022-09-09T14:38:32;1.83;;;1.40;;
35364;SDS011;21464;48.112;11.530;2022-09-09T14:40:59;2.13;;;1.77;;
35364;SDS011;21464;48.112;11.530;2022-09-09T14:43:25;5.50;;;4.18;;
35364;SDS011;21464;48.112;11.530;2022-09-09T14:45:52;2.03;;;1.58;;
35364;SDS011;21464;48.112;11.530;2022-09-09T14:48:18;2.00;;;1.80;;
35364;SDS011;21464;48.112;11.530;2022-09-09T14:50:44;3.60;;;2.00;;
35364;SDS011;21464;48.112;11.530;2022-09-09T14:53:10;4.05;;;2.88;;
35364;SDS011;21464;48.112;11.530;2022-09-09T14:55:36;1.73;;;1.48;;
35364;SDS011;21464;48.112;11.530;2022-09-09T14:58:03;1.73;;;1.52;;
35364;SDS011;21464;48.112;11.530;2022-09-09T15:00:29;0.90;;;0.90;;
35364;SDS011;21464;48.112;11.530;2022-09-09T15:02:55;1.42;;;1.00;;
35364;SDS011;21464;48.112;11.530;2022-09-09T15:05:21;2.88;;;1.00;;
35364;SDS011;21464;48.112;11.530;2022-09-09T15:07:47;2.17;;;1.08;;
35364;SDS011;21464;48.112;11.530;2022-09-09T15:10:14;0.90;;;0.90;;
35364;SDS011;21464;48.112;11.530;2022-09-09T15:12:40;2.17;;;1.10;;
35364;SDS011;21464;48.112;11.530;2022-09-09T15:15:07;1.92;;;0.88;;
35364;SDS011;21464;48.112;11.530;2022-09-09T15:17:34;1.55;;;0.90;;
35364;SDS011;21464;48.112;11.530;2022-09-09T15:20:00;2.17;;;0.90;;
35364;SDS011;21464;48.112;11.530;2022-09-09T15:22:26;2.92;;;1.10;;
35364;SDS011;21464;48.112;11.530;2022-09-09T15:24:52;3.75;;;0.93;;
35364;SDS011;21464;48.112;11.530;2022-09-09T15:27:18;1.40;;;1.00;;
35364;SDS011;21464;48.112;11.530;2022-09-09T15:29:44;1.73;;;1.13;;
35364;SDS011;21464;48.112;11.530;2022-09-09T15:32:10;3.38;;;1.10;;
35364;SDS011;21464;48.112;11.530;2022-09-09T15:34:36;1.75;;;1.10;;
35364;SDS011;21464;48.112;11.530;2022-09-09T15:37:02;1.30;;;0.90;;
35364;SDS011;21464;48.112;11.530;2022-09-09T15:39:28;2.75;;;0.88;;
35364;SDS011;21464;48.112;11.530;2022-09-09T15:41:54;1.42;;;0.90;;
35364;SDS011;21464;48.112;11.530;2022-09-09T15:44:20;1.45;;;0.95;;
35364;SDS011;21464;48.112;11.530;2022-09-09T15:46:48;1.95;;;1.15;;
35364;SDS011;21464;48.112;11.530;2022-09-09T15:49:18;1.83;;;1.67;;
35364;SDS011;21464;48.112;11.530;2022-09-09T15:51:45;3.55;;;1.55;;
35364;SDS011;21464;48.112;11.530;2022-09-09T15:54:15;3.17;;;1.90;;
35364;SDS011;21464;48.112;11.530;2022-09-09T15:56:46;5.10;;;4.07;;
35364;SDS011;21464;48.112;11.530;2022-09-09T15:59:14;9.68;;;5.50;;
35364;SDS011;21464;48.112;11.530;2022-09-09T16:01:40;2.88;;;1.73;;
35364;SDS011;21464;48.112;11.530;2022-09-09T16:04:07;2.58;;;1.52;;
35364;SDS011;21464;48.112;11.530;2022-09-09T16:06:33;1.48;;;1.20;;
35364;SDS011;21464;48.112;11.530;2022-09-09T16:08:59;4.40;;;1.55;;
35364;SDS011;21464;48.112;11.530;2022-09-09T16:11:31;1.02;;;0.93;;
35364;SDS011;21464;48.112;11.530;2022-09-09T16:13:58;3.38;;;1.40;;
35364;SDS011;21464;48.112;11.530;2022-09-09T16:16:25;1.40;;;1.00;;
35364;SDS011;21464;48.112;11.530;2022-09-09T16:18:53;1.52;;;1.10;;
35364;SDS011;21464;48.112;11.530;2022-09-09T16:21:23;4.30;;;1.10;;
35364;SDS011;21464;48.112;11.530;2022-09-09T16:23:50;1.00;;;1.00;;
35364;SDS011;21464;48.112;11.530;2022-09-09T16:26:17;2.35;;;1.08;;
35364;SDS011;21464;48.112;11.530;2022-09-09T16:28:43;1.35;;;1.10;;
35364;SDS011;21464;48.112;11.530;2022-09-09T16:31:10;1.45;;;0.80;;
35364;SDS011;21464;48.112;11.530;2022-09-09T16:33:39;1.98;;;1.00;;
35364;SDS011;21464;48.112;11.530;2022-09-09T16:36:06;1.80;;;0.95;;
35364;SDS011;21464;48.112;11.530;2022-09-09T16:38:32;1.67;;;0.90;;
35364;SDS011;21464;48.112;11.530;2022-09-09T16:40:59;1.80;;;0.93;;
35364;SDS011;21464;48.112;11.530;2022-09-09T16:43:25;1.60;;;1.33;;
35364;SDS011;21464;48.112;11.530;2022-09-09T16:45:51;1.60;;;1.20;;
35364;SDS011;21464;48.112;11.530;2022-09-09T16:48:17;1.27;;;1.10;;
35364;SDS011;21464;48.112;11.530;2022-09-09T16:50:43;1.50;;;1.00;;